Time;durP1;ratioP1;P1;durP2;ratioP2;P2;SDS_P1;SDS_P2;PMS_P1;PMS_P2;Temp;Humidity;BMP_temperature;BMP_pressure;BME280_temperature;BME280_humidity;BME280_pressure;Samples;Min_cycle;Max_cycle;Signal;HPM_P1;HPM_P2
2021/03/23 00:01:02;;;;;;;4.13;2.17;;;17.40;29.10;;;;;;8395522;28;20044;-55
2021/03/23 00:05:07;;;;;;;3.38;2.15;;;17.40;29.10;;;;;;8393502;28;20056;-53
2021/03/23 00:09:08;;;;;;;2.75;1.98;;;17.30;29.10;;;;;;8395332;28;20037;-53
2021/03/23 00:13:09;;;;;;;2.92;2.00;;;17.30;29.10;;;;;;8395338;28;20032;-53
2021/03/23 00:17:09;;;;;;;2.70;2.17;;;17.30;29.10;;;;;;8397707;28;20178;-53
2021/03/23 00:21:10;;;;;;;4.27;2.17;;;17.30;29.10;;;;;;8394547;28;20076;-53
2021/03/23 00:25:11;;;;;;;3.67;2.30;;;17.30;29.10;;;;;;8394463;28;20107;-53
2021/03/23 00:29:12;;;;;;;3.47;2.13;;;17.30;29.10;;;;;;8392837;28;20113;-53
2021/03/23 00:33:13;;;;;;;3.57;2.20;;;17.30;29.10;;;;;;8398876;28;20448;-53
2021/03/23 00:37:14;;;;;;;3.90;2.17;;;17.30;29.10;;;;;;8394164;28;20044;-52
2021/03/23 00:41:14;;;;;;;2.77;1.80;;;17.30;29.20;;;;;;8392286;28;20044;-51
2021/03/23 00:45:17;;;;;;;3.17;2.07;;;17.30;29.20;;;;;;8394133;28;20040;-52
2021/03/23 00:49:17;;;;;;;3.67;2.10;;;17.30;29.20;;;;;;8393654;28;20032;-52
2021/03/23 00:53:18;;;;;;;3.83;2.00;;;17.30;29.20;;;;;;8396504;28;20020;-52
2021/03/23 00:57:19;;;;;;;5.63;2.33;;;17.30;29.20;;;;;;8393437;28;20032;-53
2021/03/23 01:01:19;;;;;;;3.13;2.03;;;17.30;29.20;;;;;;8393340;28;20052;-52
2021/03/23 01:05:22;;;;;;;3.60;2.07;;;17.20;29.10;;;;;;8396946;28;20043;-52
2021/03/23 01:09:23;;;;;;;4.22;2.30;;;17.30;29.20;;;;;;8430857;28;20028;-52
2021/03/23 01:13:23;;;;;;;4.63;1.80;;;17.30;29.20;;;;;;8396584;28;20037;-52
2021/03/23 01:17:24;;;;;;;2.83;2.03;;;17.30;29.20;;;;;;8391103;28;20397;-52
2021/03/23 01:21:26;;;;;;;4.47;2.20;;;17.20;29.10;;;;;;8391782;28;20048;-52
2021/03/23 01:25:27;;;;;;;2.35;2.03;;;17.20;29.20;;;;;;8393399;28;20455;-52
2021/03/23 01:29:28;;;;;;;5.73;2.10;;;17.20;29.20;;;;;;8394180;28;20116;-53
2021/03/23 01:33:29;;;;;;;4.35;2.35;;;17.30;29.20;;;;;;8393006;28;20036;-52
2021/03/23 01:37:29;;;;;;;3.50;2.17;;;17.20;29.20;;;;;;8392310;28;20025;-52
2021/03/23 01:41:31;;;;;;;2.67;1.90;;;17.20;29.20;;;;;;8390599;28;20052;-55
2021/03/23 01:45:38;;;;;;;3.50;2.05;;;17.20;29.20;;;;;;8396501;28;20028;-53
2021/03/23 01:49:47;;;;;;;3.17;2.10;;;17.20;29.20;;;;;;8391733;28;20038;-52
2021/03/23 01:53:52;;;;;;;3.30;2.00;;;17.20;29.20;;;;;;8390140;28;20386;-53
2021/03/23 01:57:53;;;;;;;3.38;2.47;;;17.20;29.20;;;;;;8391711;28;20025;-52
2021/03/23 02:01:58;;;;;;;3.03;2.40;;;17.20;29.20;;;;;;8390269;28;20055;-53
2021/03/23 02:06:01;;;;;;;4.22;2.25;;;17.20;29.20;;;;;;8362780;28;20048;-53
2021/03/23 02:10:03;;;;;;;3.40;1.98;;;17.20;29.20;;;;;;8383540;28;20033;-52
2021/03/23 02:14:04;;;;;;;2.35;1.92;;;17.20;29.20;;;;;;8390767;28;20353;-52
2021/03/23 02:18:23;;;;;;;3.97;2.22;;;17.20;29.20;;;;;;8391598;28;20060;-52
2021/03/23 02:22:27;;;;;;;3.22;1.90;;;17.20;29.30;;;;;;8395789;28;20048;-53
2021/03/23 02:26:31;;;;;;;3.10;1.80;;;17.20;29.20;;;;;;8389972;28;20509;-53
2021/03/23 02:30:39;;;;;;;2.75;2.30;;;17.20;29.20;;;;;;8391419;28;20029;-53
2021/03/23 02:34:39;;;;;;;2.58;2.00;;;17.20;29.20;;;;;;8390744;28;20037;-53
2021/03/23 02:38:40;;;;;;;3.43;2.20;;;17.20;29.20;;;;;;8389232;28;20059;-53
2021/03/23 02:42:40;;;;;;;2.70;1.70;;;17.20;29.20;;;;;;8395373;28;20028;-53
2021/03/23 02:46:41;;;;;;;3.57;1.80;;;17.20;29.20;;;;;;8390999;28;20025;-53
2021/03/23 02:50:41;;;;;;;2.70;2.10;;;17.20;29.30;;;;;;8389264;28;20074;-52
2021/03/23 02:54:42;;;;;;;6.00;2.13;;;17.10;29.20;;;;;;8390713;28;20086;-52
2021/03/23 02:58:44;;;;;;;4.17;2.10;;;17.20;29.30;;;;;;8394952;28;20060;-53
2021/03/23 03:02:44;;;;;;;2.47;1.88;;;17.10;29.30;;;;;;8418564;28;20064;-52
2021/03/23 03:06:45;;;;;;;4.10;1.73;;;17.20;29.30;;;;;;8403370;28;20037;-53
2021/03/23 03:10:46;;;;;;;3.70;2.03;;;17.10;29.30;;;;;;8390313;28;20444;-53
2021/03/23 03:14:46;;;;;;;3.63;2.17;;;17.10;29.30;;;;;;8389581;28;20028;-52
2021/03/23 03:18:47;;;;;;;2.50;1.70;;;17.10;29.30;;;;;;8428445;28;20511;-52
2021/03/23 03:22:47;;;;;;;3.40;2.20;;;17.10;29.30;;;;;;8398583;28;20052;-52
2021/03/23 03:26:48;;;;;;;3.27;1.67;;;17.10;29.30;;;;;;8388545;28;20389;-52
2021/03/23 03:30:48;;;;;;;1.73;1.63;;;17.10;29.30;;;;;;8390370;28;20029;-53
2021/03/23 03:34:49;;;;;;;4.87;2.40;;;17.10;29.30;;;;;;8394399;28;20041;-53
2021/03/23 03:38:50;;;;;;;2.73;1.80;;;17.10;29.30;;;;;;8388941;28;20035;-52
2021/03/23 03:42:51;;;;;;;4.00;2.20;;;17.10;29.30;;;;;;8389848;28;20036;-52
2021/03/23 03:46:52;;;;;;;4.10;2.15;;;17.10;29.30;;;;;;8391638;28;20385;-50
2021/03/23 03:50:53;;;;;;;4.13;2.20;;;17.10;29.30;;;;;;8400305;28;20479;-53
2021/03/23 03:54:54;;;;;;;4.20;2.35;;;17.10;29.30;;;;;;8395363;28;20029;-52
2021/03/23 03:58:56;;;;;;;4.03;2.30;;;17.10;29.30;;;;;;8393631;28;20506;-53
2021/03/23 04:03:02;;;;;;;4.45;2.10;;;17.10;29.30;;;;;;8395263;28;20044;-52
2021/03/23 04:07:03;;;;;;;2.97;1.92;;;17.10;29.30;;;;;;8397643;28;20029;-53
2021/03/23 04:11:06;;;;;;;2.93;2.07;;;17.10;29.30;;;;;;8431391;28;20033;-53
2021/03/23 04:15:07;;;;;;;3.60;1.98;;;17.10;29.30;;;;;;8400585;28;20282;-52
2021/03/23 04:19:08;;;;;;;3.08;1.80;;;17.10;29.40;;;;;;8395223;28;20481;-52
2021/03/23 04:23:17;;;;;;;2.60;1.77;;;17.10;29.40;;;;;;8393352;28;20044;-53
2021/03/23 04:27:18;;;;;;;3.25;1.90;;;17.10;29.40;;;;;;8399048;28;20033;-53
2021/03/23 04:31:47;;;;;;;3.27;2.10;;;17.10;29.40;;;;;;8394449;28;20460;-53
2021/03/23 04:35:54;;;;;;;5.00;2.28;;;17.20;29.30;;;;;;8388570;28;20071;-53
2021/03/23 04:39:55;;;;;;;4.20;2.08;;;17.20;29.30;;;;;;8395049;28;20049;-53
2021/03/23 04:43:55;;;;;;;1.97;1.60;;;17.30;29.30;;;;;;8392554;28;20071;-53
2021/03/23 04:47:56;;;;;;;4.87;2.50;;;17.30;29.30;;;;;;8398191;28;20029;-54
2021/03/23 04:51:56;;;;;;;6.37;2.57;;;17.30;29.30;;;;;;8394005;28;20037;-53
2021/03/23 04:55:57;;;;;;;3.10;2.53;;;17.30;29.30;;;;;;8392258;28;20043;-53
2021/03/23 04:59:57;;;;;;;4.43;2.20;;;17.40;29.30;;;;;;8403971;28;20097;-53
2021/03/23 05:04:01;;;;;;;3.70;2.17;;;17.40;29.30;;;;;;8425766;28;20085;-54
2021/03/23 05:08:02;;;;;;;3.70;2.35;;;17.40;29.30;;;;;;8395838;28;20040;-54
2021/03/23 05:12:02;;;;;;;3.30;2.27;;;17.40;29.30;;;;;;8393342;28;20434;-53
2021/03/23 05:16:04;;;;;;;5.17;2.10;;;17.50;29.30;;;;;;8392971;28;20036;-54
2021/03/23 05:20:07;;;;;;;5.53;2.00;;;17.40;29.20;;;;;;8391384;28;20064;-54
2021/03/23 05:24:09;;;;;;;2.55;1.83;;;17.40;29.30;;;;;;8397013;28;20511;-54
2021/03/23 05:28:10;;;;;;;3.85;2.15;;;17.40;29.30;;;;;;8392695;28;20401;-54
2021/03/23 05:32:11;;;;;;;4.50;2.35;;;17.40;29.30;;;;;;8390869;28;20091;-53
2021/03/23 05:36:12;;;;;;;2.33;2.13;;;17.40;29.30;;;;;;8392589;28;20397;-54
2021/03/23 05:40:40;;;;;;;3.10;2.05;;;17.40;29.30;;;;;;8396669;28;20036;-53
2021/03/23 05:44:41;;;;;;;2.40;1.70;;;17.40;29.30;;;;;;8393785;28;20517;-53
2021/03/23 05:49:11;;;;;;;3.33;2.37;;;17.30;29.30;;;;;;8392083;28;20033;-54
2021/03/23 05:53:27;;;;;;;3.50;2.30;;;17.30;29.40;;;;;;8411219;28;20500;-53
2021/03/23 05:57:37;;;;;;;2.30;2.00;;;17.30;29.40;;;;;;8411608;28;20449;-54
2021/03/23 06:01:48;;;;;;;2.22;2.00;;;17.30;29.40;;;;;;8391636;28;20040;-54
2021/03/23 06:06:36;;;;;;;3.70;2.35;;;17.20;29.30;;;;;;8394162;28;20025;-53
2021/03/23 06:10:37;;;;;;;3.17;1.80;;;17.20;29.30;;;;;;8362045;28;20091;-52
2021/03/23 06:14:44;;;;;;;2.97;2.17;;;17.20;29.40;;;;;;8383241;28;20094;-53
2021/03/23 06:19:21;;;;;;;3.22;2.03;;;17.20;29.40;;;;;;8392533;28;20036;-53
2021/03/23 06:23:44;;;;;;;5.38;2.63;;;17.20;29.40;;;;;;8402339;28;20615;-53
2021/03/23 06:27:53;;;;;;;3.03;2.30;;;17.20;29.40;;;;;;8419057;28;20020;-54
2021/03/23 06:32:16;;;;;;;2.70;2.00;;;17.20;29.40;;;;;;8393935;28;20440;-53
2021/03/23 06:36:26;;;;;;;4.57;2.00;;;17.40;29.30;;;;;;8393284;28;20055;-53
2021/03/23 06:40:34;;;;;;;3.92;1.95;;;17.50;29.00;;;;;;8391764;28;20079;-54
2021/03/23 06:44:37;;;;;;;3.08;1.77;;;17.70;28.80;;;;;;8389190;28;20107;-54
2021/03/23 06:48:38;;;;;;;3.88;2.28;;;17.80;28.60;;;;;;8390747;28;20036;-54
2021/03/23 06:52:38;;;;;;;2.40;1.90;;;17.90;28.50;;;;;;8395033;28;20093;-54
2021/03/23 06:56:39;;;;;;;3.60;2.17;;;17.90;28.60;;;;;;8388664;28;20059;-53
2021/03/23 07:00:39;;;;;;;2.43;1.90;;;17.80;28.60;;;;;;8409174;28;20135;-55
2021/03/23 07:04:41;;;;;;;2.90;1.87;;;17.70;28.70;;;;;;8413816;28;20094;-54
2021/03/23 07:08:41;;;;;;;2.65;2.00;;;17.70;28.80;;;;;;8390913;28;20074;-55
2021/03/23 07:12:45;;;;;;;2.33;1.90;;;17.60;28.90;;;;;;8393387;28;20123;-54
2021/03/23 07:16:47;;;;;;;4.20;2.33;;;17.60;28.90;;;;;;8389051;28;20040;-55
2021/03/23 07:20:50;;;;;;;3.38;2.13;;;17.60;29.00;;;;;;8391504;28;20045;-55
2021/03/23 07:24:55;;;;;;;5.68;2.25;;;17.60;29.00;;;;;;8395298;28;20108;-55
2021/03/23 07:29:22;;;;;;;5.22;2.15;;;17.50;29.00;;;;;;8397775;28;20028;-54
2021/03/23 07:33:56;;;;;;;3.30;2.25;;;17.50;29.10;;;;;;8392095;28;20048;-54
2021/03/23 07:38:21;;;;;;;4.00;2.20;;;17.50;29.00;;;;;;8393452;28;20037;-54
2021/03/23 07:42:33;;;;;;;2.05;1.70;;;17.60;29.00;;;;;;8394548;28;20107;-55
2021/03/23 07:46:39;;;;;;;3.10;2.45;;;17.60;28.90;;;;;;8395010;28;20099;-54
2021/03/23 07:50:50;;;;;;;4.90;2.30;;;17.70;29.00;;;;;;8395492;28;20077;-53
2021/03/23 07:54:51;;;;;;;4.82;2.25;;;17.70;28.90;;;;;;8432151;28;20035;-54
2021/03/23 07:59:15;;;;;;;3.83;2.20;;;17.70;29.00;;;;;;8399097;28;20040;-54
2021/03/23 08:03:33;;;;;;;3.33;1.95;;;17.60;29.00;;;;;;8413304;28;20039;-52
2021/03/23 08:08:01;;;;;;;3.83;2.30;;;17.60;29.00;;;;;;8415720;28;20032;-54
2021/03/23 08:12:21;;;;;;;3.53;2.35;;;17.60;29.00;;;;;;8393271;28;20041;-53
2021/03/23 08:16:21;;;;;;;3.53;2.13;;;17.60;29.10;;;;;;8396026;28;20033;-54
2021/03/23 08:20:40;;;;;;;4.37;2.40;;;17.60;29.00;;;;;;8396333;28;20488;-54
2021/03/23 08:24:56;;;;;;;3.83;2.60;;;17.60;29.10;;;;;;8394657;28;20405;-54
2021/03/23 08:29:14;;;;;;;3.65;1.92;;;17.60;29.10;;;;;;8392921;28;20115;-52
2021/03/23 08:33:33;;;;;;;3.22;2.22;;;17.60;29.10;;;;;;8393685;28;20128;-55
2021/03/23 08:37:57;;;;;;;4.05;2.45;;;17.70;29.20;;;;;;8393486;28;20041;-54
2021/03/23 08:42:12;;;;;;;3.90;2.90;;;17.60;29.20;;;;;;8393997;28;20094;-54
2021/03/23 08:46:21;;;;;;;3.80;2.60;;;17.60;29.20;;;;;;8426192;28;20062;-53
2021/03/23 08:50:33;;;;;;;2.78;2.20;;;17.70;29.20;;;;;;8401374;28;20033;-54
2021/03/23 08:54:43;;;;;;;3.42;2.50;;;17.70;29.20;;;;;;8393693;28;20047;-53
2021/03/23 08:58:50;;;;;;;2.45;2.00;;;17.70;29.20;;;;;;8393609;28;20028;-54
2021/03/23 09:02:51;;;;;;;2.72;2.17;;;17.70;29.20;;;;;;8396176;28;20128;-54
2021/03/23 09:07:01;;;;;;;3.37;2.33;;;17.70;29.20;;;;;;8393393;28;20036;-53
2021/03/23 09:11:06;;;;;;;4.68;2.47;;;17.70;29.20;;;;;;8392038;28;20032;-52
2021/03/23 09:15:21;;;;;;;4.30;2.30;;;17.80;29.20;;;;;;8393296;28;20050;-54
2021/03/23 09:19:42;;;;;;;3.38;2.13;;;17.80;29.20;;;;;;8392641;28;20422;-54
2021/03/23 09:23:46;;;;;;;3.45;2.53;;;17.80;29.20;;;;;;8395603;28;20116;-53
2021/03/23 09:27:50;;;;;;;4.75;2.35;;;17.80;29.20;;;;;;8392551;28;20037;-54
2021/03/23 09:31:50;;;;;;;3.83;2.45;;;17.80;29.20;;;;;;8392617;28;20436;-52
2021/03/23 09:36:10;;;;;;;4.50;2.17;;;17.80;29.10;;;;;;8390719;28;20097;-53
2021/03/23 09:40:16;;;;;;;2.72;2.05;;;17.90;29.20;;;;;;8397163;28;20040;-53
2021/03/23 09:44:17;;;;;;;4.05;2.40;;;17.80;29.10;;;;;;8427656;28;20127;-53
2021/03/23 09:48:34;;;;;;;3.73;1.90;;;17.90;29.10;;;;;;8395211;28;20090;-53
2021/03/23 09:52:34;;;;;;;3.38;2.40;;;17.90;29.10;;;;;;8391344;28;20565;-53
2021/03/23 09:56:37;;;;;;;3.13;2.23;;;17.90;29.10;;;;;;8390017;28;20037;-51
2021/03/23 10:00:38;;;;;;;4.03;2.03;;;17.90;29.10;;;;;;8391652;28;20064;-52
2021/03/23 10:04:40;;;;;;;2.67;1.87;;;17.90;29.10;;;;;;8395903;28;20036;-53
2021/03/23 10:09:07;;;;;;;3.58;2.40;;;17.90;29.10;;;;;;8389985;28;20033;-52
2021/03/23 10:13:16;;;;;;;6.55;2.33;;;17.90;29.00;;;;;;8391358;28;20074;-52
2021/03/23 10:17:23;;;;;;;2.47;2.20;;;18.00;29.00;;;;;;8389730;28;20033;-51
2021/03/23 10:21:28;;;;;;;4.60;1.98;;;17.90;29.00;;;;;;8391191;28;20517;-52
2021/03/23 10:25:28;;;;;;;3.70;2.10;;;18.00;29.00;;;;;;8395566;28;20028;-53
2021/03/23 10:29:32;;;;;;;2.40;2.00;;;18.00;29.00;;;;;;8389394;28;20108;-53
2021/03/23 10:33:35;;;;;;;3.63;2.15;;;18.00;28.90;;;;;;8391026;28;20626;-53
2021/03/23 10:37:36;;;;;;;2.80;1.90;;;18.00;28.90;;;;;;8391001;28;20110;-54
2021/03/23 10:41:36;;;;;;;3.13;2.00;;;18.00;28.90;;;;;;8393697;28;20505;-53
2021/03/23 10:45:43;;;;;;;3.03;2.00;;;18.00;28.90;;;;;;8390931;28;20036;-53
2021/03/23 10:49:44;;;;;;;2.65;1.90;;;18.00;29.10;;;;;;8390041;28;20064;-53
2021/03/23 10:54:11;;;;;;;2.87;1.90;;;18.00;29.00;;;;;;8400592;28;20051;-54
2021/03/23 10:58:17;;;;;;;2.97;2.10;;;18.10;29.00;;;;;;8413512;28;20039;-55
2021/03/23 11:02:28;;;;;;;3.20;2.50;;;18.10;29.00;;;;;;8433161;28;20029;-52
2021/03/23 11:06:30;;;;;;;3.90;1.97;;;18.10;29.40;;;;;;8399241;28;20115;-54
2021/03/23 11:10:34;;;;;;;3.90;2.22;;;18.10;29.00;;;;;;8396839;28;20082;-55
2021/03/23 11:14:34;;;;;;;2.55;1.52;;;18.10;29.00;;;;;;8406968;28;20141;-54
2021/03/23 11:18:36;;;;;;;2.17;1.83;;;18.10;29.00;;;;;;8427939;28;20062;-54
2021/03/23 11:22:38;;;;;;;2.47;1.80;;;18.10;29.00;;;;;;8400888;28;20216;-53
2021/03/23 11:26:43;;;;;;;3.28;1.88;;;18.10;28.90;;;;;;8394733;28;20029;-54
2021/03/23 11:30:44;;;;;;;2.30;1.65;;;18.10;29.00;;;;;;8396201;28;20063;-54
2021/03/23 11:34:45;;;;;;;1.98;1.73;;;18.10;28.90;;;;;;8396196;28;20025;-53
2021/03/23 11:38:46;;;;;;;2.27;1.90;;;18.20;28.90;;;;;;8398816;28;20021;-54
2021/03/23 11:42:49;;;;;;;2.13;1.88;;;18.10;28.90;;;;;;8395905;28;20447;-54
2021/03/23 11:47:01;;;;;;;4.50;1.75;;;18.20;28.90;;;;;;8395929;28;20501;-53
2021/03/23 11:51:02;;;;;;;2.95;2.33;;;18.20;29.00;;;;;;8394453;28;20036;-54
2021/03/23 11:55:09;;;;;;;2.05;1.63;;;18.20;28.90;;;;;;8396011;28;20098;-55
2021/03/23 11:59:10;;;;;;;2.72;1.88;;;18.20;28.90;;;;;;8398363;28;20580;-55
2021/03/23 12:03:12;;;;;;;3.00;1.70;;;18.30;29.00;;;;;;8395729;28;20036;-54
2021/03/23 12:07:34;;;;;;;3.05;1.70;;;18.30;29.00;;;;;;8394675;28;20040;-54
2021/03/23 12:11:51;;;;;;;2.15;1.85;;;18.30;29.00;;;;;;8393633;28;20101;-55
2021/03/23 12:16:06;;;;;;;2.65;1.98;;;18.30;28.90;;;;;;8395153;28;20398;-54
2021/03/23 12:20:12;;;;;;;2.60;1.92;;;18.30;28.90;;;;;;8397678;28;20425;-54
2021/03/23 12:24:13;;;;;;;2.22;1.65;;;18.30;28.90;;;;;;8394931;28;20055;-55
2021/03/23 12:28:14;;;;;;;2.72;1.83;;;18.30;28.90;;;;;;8394574;28;20036;-54
2021/03/23 12:32:17;;;;;;;3.57;1.90;;;18.30;28.90;;;;;;8393046;28;20050;-55
2021/03/23 12:36:18;;;;;;;3.65;1.70;;;18.30;28.90;;;;;;8398775;28;20094;-54
2021/03/23 12:40:21;;;;;;;2.10;1.70;;;18.40;29.00;;;;;;8395893;28;20056;-53
2021/03/23 12:44:22;;;;;;;1.77;1.50;;;18.40;28.90;;;;;;8392104;28;20405;-54
2021/03/23 12:48:23;;;;;;;3.00;2.03;;;18.30;28.90;;;;;;8393606;28;20082;-54
2021/03/23 12:52:25;;;;;;;2.47;1.45;;;18.40;28.90;;;;;;8394016;28;20070;-55
2021/03/23 12:56:26;;;;;;;3.28;1.98;;;18.30;28.90;;;;;;8396409;28;20044;-55
2021/03/23 13:00:37;;;;;;;2.00;1.80;;;18.40;28.90;;;;;;8393667;28;20045;-54
2021/03/23 13:04:38;;;;;;;2.25;1.50;;;18.40;29.00;;;;;;8411641;28;20131;-54
2021/03/23 13:08:39;;;;;;;2.73;1.60;;;18.40;28.90;;;;;;8423893;28;20028;-54
2021/03/23 13:12:39;;;;;;;2.23;1.43;;;18.40;28.90;;;;;;8431078;28;20499;-55
2021/03/23 13:16:40;;;;;;;1.90;1.40;;;18.30;29.30;;;;;;8393227;28;20500;-54
2021/03/23 13:20:41;;;;;;;2.97;2.03;;;18.40;28.90;;;;;;8390919;28;20401;-55
2021/03/23 13:24:45;;;;;;;3.38;1.77;;;18.40;28.90;;;;;;8404820;28;20397;-54
2021/03/23 13:28:56;;;;;;;2.00;1.45;;;18.40;29.00;;;;;;8422146;28;20044;-55
2021/03/23 13:33:00;;;;;;;3.47;1.83;;;18.30;28.90;;;;;;8395424;28;20056;-54
2021/03/23 13:37:06;;;;;;;2.13;1.60;;;18.40;29.00;;;;;;8392016;28;20124;-54
2021/03/23 13:41:06;;;;;;;2.83;1.60;;;18.40;29.00;;;;;;8391082;28;20048;-55
2021/03/23 13:45:17;;;;;;;1.40;1.30;;;18.30;28.90;;;;;;8391873;28;20123;-54
2021/03/23 13:49:19;;;;;;;1.90;1.60;;;18.30;28.90;;;;;;8392249;28;20108;-54
2021/03/23 13:53:23;;;;;;;3.00;1.55;;;18.30;28.90;;;;;;8394431;28;20040;-54
2021/03/23 13:57:24;;;;;;;2.08;1.67;;;18.30;29.00;;;;;;8391678;28;20060;-55
2021/03/23 14:01:24;;;;;;;2.67;1.53;;;18.40;29.00;;;;;;8406874;28;20044;-53
2021/03/23 14:05:25;;;;;;;2.00;1.40;;;18.40;29.00;;;;;;8417602;27;20032;-54
2021/03/23 14:09:25;;;;;;;2.30;1.63;;;18.40;29.00;;;;;;8395738;28;20035;-55
2021/03/23 14:13:26;;;;;;;1.77;1.50;;;18.40;28.90;;;;;;8391573;28;20040;-55
2021/03/23 14:17:31;;;;;;;1.60;1.37;;;18.30;29.00;;;;;;8390308;28;20477;-55
2021/03/23 14:21:31;;;;;;;1.67;1.25;;;18.40;29.00;;;;;;8391193;28;20057;-53
2021/03/23 14:25:43;;;;;;;1.90;1.50;;;18.40;29.00;;;;;;8394003;28;20112;-55
2021/03/23 14:29:44;;;;;;;2.00;1.40;;;18.40;28.90;;;;;;8360029;28;20128;-55
2021/03/23 14:33:46;;;;;;;3.77;1.50;;;18.40;29.00;;;;;;8383523;28;20033;-54
2021/03/23 14:37:51;;;;;;;2.28;1.58;;;18.40;28.90;;;;;;8405459;28;20482;-55
2021/03/23 14:41:52;;;;;;;1.95;1.40;;;18.40;28.90;;;;;;8421747;28;20131;-55
2021/03/23 14:45:53;;;;;;;1.50;1.40;;;18.40;28.90;;;;;;8428524;28;20401;-55
2021/03/23 14:49:55;;;;;;;2.65;1.70;;;18.40;28.90;;;;;;8393239;28;20107;-49
2021/03/23 14:53:57;;;;;;;2.08;1.40;;;18.40;29.00;;;;;;8389954;28;20033;-55
2021/03/23 14:57:58;;;;;;;1.52;1.33;;;18.40;28.90;;;;;;8390396;28;20068;-55
2021/03/23 15:01:58;;;;;;;1.53;1.30;;;18.40;28.90;;;;;;8391044;28;20037;-55
2021/03/23 15:05:59;;;;;;;1.80;1.27;;;18.40;29.00;;;;;;8394665;28;20029;-55
2021/03/23 15:10:01;;;;;;;3.63;1.70;;;18.40;28.90;;;;;;8390183;28;20033;-54
2021/03/23 15:14:03;;;;;;;1.80;1.52;;;18.40;28.90;;;;;;8388602;28;20048;-54
2021/03/23 15:18:03;;;;;;;;;;;18.40;28.90;;;;;;8393840;28;20124;-55
2021/03/23 15:22:04;;;;;;;1.50;1.40;;;18.40;28.90;;;;;;8428026;28;19923;-54
2021/03/23 15:26:08;;;;;;;3.03;1.40;;;18.40;29.00;;;;;;8394512;28;20028;-54
2021/03/23 15:30:13;;;;;;;1.85;1.52;;;18.40;29.00;;;;;;8389808;28;20397;-55
2021/03/23 15:34:15;;;;;;;3.33;1.75;;;18.40;28.90;;;;;;8390218;28;20033;-55
2021/03/23 15:38:20;;;;;;;1.38;1.23;;;18.40;28.90;;;;;;8392834;28;20033;-55
2021/03/23 15:42:25;;;;;;;3.15;1.20;;;18.40;29.00;;;;;;8395728;28;20540;-55
2021/03/23 15:46:26;;;;;;;2.72;1.77;;;18.40;29.00;;;;;;8395772;28;20066;-54
2021/03/23 15:50:28;;;;;;;2.97;1.33;;;18.40;29.00;;;;;;8394043;28;20474;-55
2021/03/23 15:54:32;;;;;;;1.55;1.40;;;18.40;29.00;;;;;;8395536;28;20033;-54
2021/03/23 15:58:33;;;;;;;2.38;1.67;;;18.40;29.00;;;;;;8399609;28;20025;-53
2021/03/23 16:02:34;;;;;;;2.90;1.70;;;18.40;29.00;;;;;;8393500;28;20059;-54
2021/03/23 16:06:35;;;;;;;1.80;1.40;;;18.30;28.90;;;;;;8395475;28;20037;-55
2021/03/23 16:10:35;;;;;;;2.08;1.42;;;18.40;29.00;;;;;;8402620;28;20028;-55
2021/03/23 16:14:36;;;;;;;1.80;1.33;;;18.40;29.00;;;;;;8431724;28;20036;-55
2021/03/23 16:18:36;;;;;;;2.60;1.40;;;18.30;29.00;;;;;;8395782;28;20397;-55
2021/03/23 16:22:39;;;;;;;2.17;1.63;;;18.30;29.00;;;;;;8415729;28;20048;-55
2021/03/23 16:26:40;;;;;;;2.03;1.38;;;18.30;29.00;;;;;;8413630;28;20074;-56
2021/03/23 16:30:40;;;;;;;1.93;1.53;;;18.30;29.00;;;;;;8394282;28;20045;-55
2021/03/23 16:34:41;;;;;;;1.93;1.27;;;18.30;29.00;;;;;;8398977;28;20504;-55
2021/03/23 16:38:41;;;;;;;2.13;1.90;;;18.30;29.00;;;;;;8393221;28;20078;-55
2021/03/23 16:42:42;;;;;;;1.87;1.40;;;18.30;29.00;;;;;;8394476;28;20044;-55
2021/03/23 16:46:42;;;;;;;2.03;1.60;;;18.30;29.00;;;;;;8394574;28;20032;-55
2021/03/23 16:50:46;;;;;;;1.73;1.23;;;18.30;29.00;;;;;;8391392;28;20084;-55
2021/03/23 16:54:46;;;;;;;2.33;1.30;;;18.20;29.00;;;;;;8392661;28;20465;-55
2021/03/23 16:58:47;;;;;;;1.43;1.33;;;18.30;29.00;;;;;;8393349;28;20040;-55
2021/03/23 17:02:48;;;;;;;1.50;1.40;;;18.20;29.00;;;;;;8391574;28;20409;-55
2021/03/23 17:06:48;;;;;;;1.97;1.40;;;18.20;29.10;;;;;;8394418;28;20036;-55
2021/03/23 17:10:49;;;;;;;4.33;1.60;;;18.20;29.10;;;;;;8396985;28;20478;-54
2021/03/23 17:14:49;;;;;;;3.00;2.00;;;18.20;29.10;;;;;;8392143;28;20127;-55
2021/03/23 17:18:51;;;;;;;2.43;1.50;;;18.20;29.10;;;;;;8393022;28;20032;-54
2021/03/23 17:22:52;;;;;;;1.70;1.10;;;18.20;29.10;;;;;;8392449;28;20162;-55
2021/03/23 17:26:53;;;;;;;1.60;1.20;;;18.20;29.10;;;;;;8395443;28;20024;-54
2021/03/23 17:30:54;;;;;;;1.47;1.33;;;18.20;29.10;;;;;;8391013;28;20032;-50
2021/03/23 17:34:55;;;;;;;2.70;1.50;;;18.20;29.20;;;;;;8407987;28;20035;-50
2021/03/23 17:38:56;;;;;;;1.40;1.30;;;18.20;29.20;;;;;;8405419;28;20127;-55
2021/03/23 17:42:58;;;;;;;1.50;1.40;;;18.20;29.20;;;;;;8396798;28;20036;-53
2021/03/23 17:46:59;;;;;;;2.20;1.40;;;18.20;29.20;;;;;;8390322;28;20771;-51
2021/03/23 17:50:59;;;;;;;3.73;1.60;;;18.20;29.20;;;;;;8392374;27;20044;-52
2021/03/23 17:55:00;;;;;;;1.37;1.27;;;18.20;29.20;;;;;;8392833;28;20412;-55
2021/03/23 17:59:01;;;;;;;2.47;1.10;;;18.20;29.20;;;;;;8388962;28;20482;-53
2021/03/23 18:03:03;;;;;;;2.87;1.50;;;18.20;29.20;;;;;;8395118;28;20063;-53
2021/03/23 18:07:03;;;;;;;1.80;1.30;;;18.20;29.20;;;;;;8390761;28;20033;-54
2021/03/23 18:11:04;;;;;;;1.57;1.47;;;18.20;29.20;;;;;;8388255;28;20033;-54
2021/03/23 18:15:07;;;;;;;2.47;1.50;;;18.10;29.20;;;;;;8391579;28;20106;-54
2021/03/23 18:19:08;;;;;;;1.58;1.48;;;18.20;29.20;;;;;;8395586;28;20039;-54
2021/03/23 18:23:09;;;;;;;3.50;1.73;;;18.10;29.20;;;;;;8389004;28;20044;-54
2021/03/23 18:27:10;;;;;;;1.95;1.45;;;18.10;29.20;;;;;;8391096;28;20044;-55
2021/03/23 18:31:10;;;;;;;1.93;1.30;;;18.10;29.20;;;;;;8390628;28;20480;-53
2021/03/23 18:35:13;;;;;;;1.60;1.50;;;18.10;29.20;;;;;;8392341;28;20123;-55
2021/03/23 18:39:14;;;;;;;1.50;1.25;;;18.10;29.20;;;;;;8392193;28;20963;-50
2021/03/23 18:43:15;;;;;;;1.73;1.63;;;18.10;29.30;;;;;;8390171;28;20076;-52
2021/03/23 18:47:15;;;;;;;3.77;1.43;;;18.10;29.30;;;;;;8389249;28;20055;-52
2021/03/23 18:51:16;;;;;;;3.57;1.50;;;18.10;29.30;;;;;;8390309;28;20032;-52
2021/03/23 18:55:21;;;;;;;2.70;1.60;;;18.10;29.20;;;;;;8394439;28;20029;-53
2021/03/23 18:59:21;;;;;;;4.45;1.63;;;18.10;29.30;;;;;;8388422;28;20753;-53
2021/03/23 19:03:27;;;;;;;2.60;1.70;;;18.10;29.30;;;;;;8390585;28;20048;-53
2021/03/23 19:07:28;;;;;;;2.20;1.70;;;18.10;29.30;;;;;;8388089;28;20105;-54
2021/03/23 19:11:28;;;;;;;2.33;1.83;;;18.10;29.30;;;;;;8392549;28;20021;-54
2021/03/23 19:15:29;;;;;;;3.30;1.80;;;18.00;29.20;;;;;;8391668;28;20078;-53
2021/03/23 19:19:30;;;;;;;2.67;1.83;;;18.00;29.20;;;;;;8417833;28;20481;-56
2021/03/23 19:23:31;;;;;;;2.30;1.63;;;18.00;29.30;;;;;;8415070;28;20051;-53
2021/03/23 19:27:32;;;;;;;2.38;1.70;;;18.00;29.20;;;;;;8395999;28;20036;-54
2021/03/23 19:31:32;;;;;;;1.80;1.53;;;18.10;29.30;;;;;;8400631;28;20036;-54
2021/03/23 19:35:34;;;;;;;1.80;1.70;;;18.00;29.30;;;;;;8393650;28;20036;-56
2021/03/23 19:39:36;;;;;;;;;;;18.00;29.30;;;;;;8411863;28;20036;-54
2021/03/23 19:43:39;;;;;;;2.55;2.00;;;18.00;29.30;;;;;;8428359;28;19916;-55
2021/03/23 19:47:40;;;;;;;2.40;1.90;;;18.00;29.30;;;;;;8431190;28;20385;-54
2021/03/23 19:51:41;;;;;;;2.60;1.50;;;17.90;29.30;;;;;;8398421;28;20128;-54
2021/03/23 19:55:45;;;;;;;2.50;1.95;;;18.00;29.30;;;;;;8395434;28;20040;-54
2021/03/23 19:59:46;;;;;;;3.00;1.70;;;18.00;29.30;;;;;;8393252;28;20032;-54
2021/03/23 20:03:47;;;;;;;3.23;1.80;;;18.00;29.30;;;;;;8395356;28;20033;-54
2021/03/23 20:07:48;;;;;;;;;;;17.90;29.70;;;;;;8433251;28;20370;-54
2021/03/23 20:11:49;;;;;;;2.25;1.83;;;18.00;29.30;;;;;;8400659;28;19912;-54
2021/03/23 20:15:50;;;;;;;3.23;1.90;;;18.00;29.30;;;;;;8395271;28;20033;-54
2021/03/23 20:19:52;;;;;;;1.90;1.70;;;17.90;29.30;;;;;;8394509;28;20444;-54
2021/03/23 20:23:52;;;;;;;4.20;1.88;;;17.90;29.30;;;;;;8397052;28;20032;-55
2021/03/23 20:27:53;;;;;;;2.83;1.97;;;17.90;29.30;;;;;;8393436;28;20032;-54
2021/03/23 20:31:54;;;;;;;2.65;1.73;;;17.90;29.30;;;;;;8394464;28;20079;-55
2021/03/23 20:35:56;;;;;;;2.43;1.97;;;17.90;29.30;;;;;;8393343;28;20028;-54
2021/03/23 20:39:57;;;;;;;2.70;1.77;;;17.90;29.30;;;;;;8398666;28;20090;-54
2021/03/23 20:43:59;;;;;;;2.10;1.80;;;17.90;29.30;;;;;;8391864;28;20041;-53
2021/03/23 20:48:00;;;;;;;2.45;1.70;;;17.90;29.30;;;;;;8394002;28;20409;-54
2021/03/23 20:52:00;;;;;;;2.53;2.00;;;17.90;29.30;;;;;;8393629;28;20133;-54
2021/03/23 20:56:01;;;;;;;3.53;1.83;;;17.90;29.30;;;;;;8391922;28;20041;-55
2021/03/23 21:00:02;;;;;;;2.73;2.00;;;17.90;29.30;;;;;;8397961;28;20439;-54
2021/03/23 21:04:03;;;;;;;;;;;17.90;29.30;;;;;;8393381;28;20115;-54
2021/03/23 21:08:04;;;;;;;2.15;1.70;;;17.80;29.30;;;;;;8390642;28;19919;-55
2021/03/23 21:12:05;;;;;;;4.57;2.10;;;17.80;29.30;;;;;;8392909;28;20414;-55